Time;durP1;ratioP1;P1;durP2;ratioP2;P2;SDS_P1;SDS_P2;PMS_P1;PMS_P2;Temp;Humidity;BMP_temperature;BMP_pressure;BME280_temperature;BME280_humidity;BME280_pressure;Samples;Min_cycle;Max_cycle;Signal;HPM_P1;HPM_P2
2023/06/07 00:01:42;;;;;;;8.82;4.68;;;;;;;;;;5096848;28;20036;-64
2023/06/07 00:04:13;;;;;;;8.50;4.47;;;;;;;;;;5096850;28;20385;-64
2023/06/07 00:06:41;;;;;;;9.15;4.60;;;;;;;;;;5092911;28;20145;-64
2023/06/07 00:09:08;;;;;;;8.82;4.45;;;;;;;;;;5095461;28;20048;-64
2023/06/07 00:11:34;;;;;;;11.82;4.47;;;;;;;;;;5095071;28;20016;-64
2023/06/07 00:14:00;;;;;;;9.80;3.67;;;;;;;;;;5097034;28;20024;-64
2023/06/07 00:16:26;;;;;;;9.88;4.75;;;;;;;;;;5093645;28;20108;-64
2023/06/07 00:18:52;;;;;;;9.93;4.30;;;;;;;;;;5094609;28;20016;-64
2023/06/07 00:21:20;;;;;;;11.60;4.57;;;;;;;;;;5093537;28;20447;-64
2023/06/07 00:23:46;;;;;;;14.55;5.53;;;;;;;;;;5096662;28;20370;-66
2023/06/07 00:26:12;;;;;;;10.15;4.32;;;;;;;;;;5097339;28;20030;-64
2023/06/07 00:28:37;;;;;;;10.57;5.13;;;;;;;;;;5095848;28;20021;-64
2023/06/07 00:31:04;;;;;;;8.07;5.03;;;;;;;;;;5095846;28;20470;-64
2023/06/07 00:33:29;;;;;;;11.30;5.22;;;;;;;;;;5093467;28;20024;-64
2023/06/07 00:35:55;;;;;;;8.40;4.53;;;;;;;;;;5093277;28;20031;-64
2023/06/07 00:38:22;;;;;;;9.45;4.80;;;;;;;;;;5094525;28;20019;-64
2023/06/07 00:40:47;;;;;;;10.48;4.82;;;;;;;;;;5093191;28;20058;-63
2023/06/07 00:43:13;;;;;;;11.55;5.13;;;;;;;;;;5093255;28;20209;-63
2023/06/07 00:45:38;;;;;;;14.65;4.75;;;;;;;;;;5093229;28;20028;-63
2023/06/07 00:48:04;;;;;;;7.22;4.50;;;;;;;;;;5093479;28;20044;-64
2023/06/07 00:50:29;;;;;;;9.88;5.00;;;;;;;;;;5093557;28;20028;-64
2023/06/07 00:52:55;;;;;;;15.23;5.57;;;;;;;;;;5093387;28;20461;-63
2023/06/07 00:55:21;;;;;;;10.10;4.80;;;;;;;;;;5093684;28;20078;-64
2023/06/07 00:57:47;;;;;;;11.18;4.70;;;;;;;;;;5093484;28;20024;-63
2023/06/07 01:00:13;;;;;;;9.95;4.82;;;;;;;;;;5092411;28;20081;-66
2023/06/07 01:02:46;;;;;;;10.52;6.50;;;;;;;;;;5093291;28;20024;-64
2023/06/07 01:05:12;;;;;;;13.98;5.03;;;;;;;;;;5093416;28;20069;-64
2023/06/07 01:07:38;;;;;;;8.93;4.90;;;;;;;;;;5092996;28;20035;-63
2023/06/07 01:10:05;;;;;;;11.50;4.80;;;;;;;;;;5092854;28;20382;-63
2023/06/07 01:12:34;;;;;;;9.10;5.30;;;;;;;;;;5093271;28;20035;-64
2023/06/07 01:15:00;;;;;;;13.88;6.00;;;;;;;;;;5093138;28;20032;-65
2023/06/07 01:17:28;;;;;;;13.23;6.15;;;;;;;;;;5093062;28;20421;-66
2023/06/07 01:19:55;;;;;;;18.42;8.60;;;;;;;;;;5093100;28;20035;-64
2023/06/07 01:22:27;;;;;;;15.57;7.13;;;;;;;;;;5092864;28;20034;-64
2023/06/07 01:24:56;;;;;;;13.13;6.75;;;;;;;;;;5093059;28;20016;-64
2023/06/07 01:27:27;;;;;;;14.80;7.57;;;;;;;;;;5092952;28;20030;-65
2023/06/07 01:29:55;;;;;;;15.82;7.38;;;;;;;;;;5093133;28;20420;-63
2023/06/07 01:32:22;;;;;;;13.18;6.88;;;;;;;;;;5092979;28;20103;-63
2023/06/07 01:34:49;;;;;;;11.35;6.07;;;;;;;;;;5093036;28;20016;-63
2023/06/07 01:37:15;;;;;;;8.40;5.63;;;;;;;;;;5092556;28;20103;-64
2023/06/07 01:39:41;;;;;;;10.02;6.13;;;;;;;;;;5106032;28;20124;-65
2023/06/07 01:42:09;;;;;;;12.85;5.00;;;;;;;;;;5113295;28;20024;-62
2023/06/07 01:44:37;;;;;;;14.40;5.47;;;;;;;;;;5113109;28;20032;-63
2023/06/07 01:47:03;;;;;;;11.23;5.65;;;;;;;;;;5113042;28;20067;-63
2023/06/07 01:49:29;;;;;;;12.15;5.10;;;;;;;;;;5113474;28;20031;-63
2023/06/07 01:51:54;;;;;;;9.57;5.03;;;;;;;;;;5113018;28;20028;-65
2023/06/07 01:54:20;;;;;;;10.95;5.22;;;;;;;;;;5113307;28;20469;-63
2023/06/07 01:56:54;;;;;;;11.13;5.70;;;;;;;;;;5111816;28;20119;-63
2023/06/07 01:59:38;;;;;;;10.75;5.38;;;;;;;;;;5113050;28;20026;-63
2023/06/07 02:02:37;;;;;;;12.57;5.38;;;;;;;;;;5113184;28;20035;-63
2023/06/07 02:05:11;;;;;;;11.52;4.63;;;;;;;;;;5092754;28;20032;-66
2023/06/07 02:07:48;;;;;;;11.50;5.32;;;;;;;;;;5092399;28;20027;-64
2023/06/07 02:10:20;;;;;;;10.40;4.88;;;;;;;;;;5092640;28;20474;-63
2023/06/07 02:12:46;;;;;;;10.30;4.55;;;;;;;;;;5092711;28;20036;-63
2023/06/07 02:15:12;;;;;;;9.93;4.90;;;;;;;;;;5092469;28;20034;-63
2023/06/07 02:18:07;;;;;;;8.20;5.00;;;;;;;;;;5092453;28;20506;-63
2023/06/07 02:20:35;;;;;;;10.25;5.03;;;;;;;;;;5050128;28;20037;-65
2023/06/07 02:23:00;;;;;;;7.90;4.90;;;;;;;;;;5054184;28;20510;-64
2023/06/07 02:25:27;;;;;;;11.70;5.65;;;;;;;;;;5054010;28;20045;-64
2023/06/07 02:27:53;;;;;;;11.40;6.03;;;;;;;;;;5053985;28;20036;-63
2023/06/07 02:30:18;;;;;;;7.82;5.20;;;;;;;;;;5053961;28;20040;-63
2023/06/07 02:32:45;;;;;;;12.18;4.85;;;;;;;;;;5054105;28;20098;-64
2023/06/07 02:35:11;;;;;;;12.38;5.00;;;;;;;;;;5053621;28;20029;-64
2023/06/07 02:37:37;;;;;;;7.35;4.93;;;;;;;;;;5053560;28;20438;-64
2023/06/07 02:40:09;;;;;;;10.75;5.13;;;;;;;;;;5069766;28;20032;-63
2023/06/07 02:42:36;;;;;;;9.32;4.72;;;;;;;;;;5073872;28;20420;-63
2023/06/07 02:45:02;;;;;;;8.82;5.03;;;;;;;;;;5073677;28;20033;-64
2023/06/07 02:47:31;;;;;;;11.35;4.90;;;;;;;;;;5073411;28;20127;-63
2023/06/07 02:49:57;;;;;;;15.93;6.75;;;;;;;;;;5073363;28;20044;-64
2023/06/07 02:52:22;;;;;;;9.70;4.85;;;;;;;;;;5073609;28;20387;-63
2023/06/07 02:54:48;;;;;;;9.50;5.35;;;;;;;;;;5073612;28;20067;-63
2023/06/07 02:57:14;;;;;;;9.07;4.70;;;;;;;;;;5100400;28;20494;-64
2023/06/07 02:59:40;;;;;;;11.55;5.60;;;;;;;;;;5116242;28;20051;-64
2023/06/07 03:02:06;;;;;;;18.42;8.65;;;;;;;;;;5116179;28;20084;-64
2023/06/07 03:04:32;;;;;;;12.05;6.35;;;;;;;;;;5097302;28;20085;-64
2023/06/07 03:06:58;;;;;;;8.85;5.65;;;;;;;;;;5095752;28;20024;-64
2023/06/07 03:09:24;;;;;;;11.02;5.22;;;;;;;;;;5095872;28;20385;-64
2023/06/07 03:11:50;;;;;;;13.95;5.05;;;;;;;;;;5095610;28;20027;-64
2023/06/07 03:14:18;;;;;;;10.38;5.10;;;;;;;;;;5095622;28;20484;-65
2023/06/07 03:16:45;;;;;;;9.10;4.97;;;;;;;;;;5095280;28;20461;-64
2023/06/07 03:19:11;;;;;;;10.48;5.28;;;;;;;;;;5095086;28;20478;-64
2023/06/07 03:21:40;;;;;;;8.23;4.43;;;;;;;;;;5094099;28;20103;-64
2023/06/07 03:24:06;;;;;;;8.00;4.78;;;;;;;;;;5095439;28;20032;-65
2023/06/07 03:26:32;;;;;;;16.23;5.90;;;;;;;;;;5095209;28;20351;-64
2023/06/07 03:28:57;;;;;;;14.50;5.93;;;;;;;;;;5095352;28;20059;-64
2023/06/07 03:31:23;;;;;;;8.68;5.30;;;;;;;;;;5094772;28;20032;-65
2023/06/07 03:33:49;;;;;;;14.27;6.07;;;;;;;;;;5094901;28;20112;-64
2023/06/07 03:36:20;;;;;;;11.63;6.22;;;;;;;;;;5095204;28;20107;-64
2023/06/07 03:38:46;;;;;;;14.15;5.53;;;;;;;;;;5086324;28;20096;-65
2023/06/07 03:41:11;;;;;;;29.88;8.00;;;;;;;;;;5115239;28;20036;-64
2023/06/07 03:43:37;;;;;;;17.65;6.65;;;;;;;;;;5115466;28;20072;-64
2023/06/07 03:46:02;;;;;;;18.27;6.68;;;;;;;;;;5115426;28;20453;-64
2023/06/07 03:48:28;;;;;;;21.83;6.88;;;;;;;;;;5114896;28;20043;-64
2023/06/07 03:50:53;;;;;;;17.48;7.45;;;;;;;;;;5115246;28;20016;-64
2023/06/07 03:53:18;;;;;;;15.88;6.13;;;;;;;;;;5115223;28;20027;-64
2023/06/07 03:55:47;;;;;;;13.05;5.90;;;;;;;;;;5114944;28;20473;-64
2023/06/07 03:58:13;;;;;;;9.32;5.38;;;;;;;;;;5115117;28;20020;-64
2023/06/07 04:00:39;;;;;;;12.00;6.25;;;;;;;;;;5114880;28;20030;-64
2023/06/07 04:03:04;;;;;;;15.13;5.63;;;;;;;;;;5108528;28;20020;-64
2023/06/07 04:05:30;;;;;;;14.63;5.97;;;;;;;;;;5094545;28;20020;-64
2023/06/07 04:07:59;;;;;;;19.88;6.60;;;;;;;;;;5094511;28;20027;-64
2023/06/07 04:10:25;;;;;;;14.07;6.80;;;;;;;;;;5094161;28;20027;-64
2023/06/07 04:12:50;;;;;;;14.95;6.72;;;;;;;;;;5094437;28;20481;-64
2023/06/07 04:15:15;;;;;;;12.35;6.07;;;;;;;;;;5094274;28;20444;-64
2023/06/07 04:17:41;;;;;;;10.98;6.30;;;;;;;;;;5093855;28;20024;-64
2023/06/07 04:20:07;;;;;;;9.93;6.05;;;;;;;;;;5094121;28;20035;-64
2023/06/07 04:22:35;;;;;;;10.55;6.35;;;;;;;;;;5094107;28;20020;-65
2023/06/07 04:25:01;;;;;;;11.25;6.55;;;;;;;;;;5094068;28;20028;-64
2023/06/07 04:27:29;;;;;;;10.75;6.00;;;;;;;;;;5093994;28;20035;-66
2023/06/07 04:29:55;;;;;;;11.18;5.35;;;;;;;;;;5094359;28;20039;-65
2023/06/07 04:32:20;;;;;;;19.38;6.78;;;;;;;;;;5093842;28;20024;-65
2023/06/07 04:34:46;;;;;;;10.90;6.13;;;;;;;;;;5094112;28;20039;-65
2023/06/07 04:37:12;;;;;;;13.80;5.78;;;;;;;;;;5093822;28;20012;-65
2023/06/07 04:39:40;;;;;;;23.13;7.03;;;;;;;;;;5106830;28;20032;-65
2023/06/07 04:42:07;;;;;;;12.90;5.60;;;;;;;;;;5114342;28;20051;-64
2023/06/07 04:44:32;;;;;;;17.95;6.72;;;;;;;;;;5113423;28;20028;-64
2023/06/07 04:46:59;;;;;;;12.98;6.25;;;;;;;;;;5113716;28;20056;-65
2023/06/07 04:49:26;;;;;;;15.02;6.53;;;;;;;;;;5114061;28;20024;-64
2023/06/07 04:51:52;;;;;;;9.30;5.53;;;;;;;;;;5114029;28;20023;-64
2023/06/07 04:54:19;;;;;;;10.50;5.60;;;;;;;;;;5113898;28;20477;-64
2023/06/07 04:56:45;;;;;;;14.60;5.53;;;;;;;;;;5113830;28;20027;-64
2023/06/07 04:59:10;;;;;;;11.93;5.28;;;;;;;;;;5113817;28;20030;-65
2023/06/07 05:01:36;;;;;;;17.50;5.70;;;;;;;;;;5113578;28;20079;-65
2023/06/07 05:04:02;;;;;;;14.10;5.30;;;;;;;;;;5099414;28;20080;-65
2023/06/07 05:06:28;;;;;;;9.25;5.20;;;;;;;;;;5093549;28;20024;-65
2023/06/07 05:08:55;;;;;;;8.23;5.10;;;;;;;;;;5093651;28;20127;-65
2023/06/07 05:11:20;;;;;;;9.73;4.80;;;;;;;;;;5093211;28;20103;-65
2023/06/07 05:13:46;;;;;;;16.55;5.13;;;;;;;;;;5093223;28;20566;-65
2023/06/07 05:16:16;;;;;;;12.88;5.18;;;;;;;;;;5093141;28;20032;-65
2023/06/07 05:18:48;;;;;;;17.13;5.28;;;;;;;;;;5093361;28;20026;-65
2023/06/07 05:21:15;;;;;;;13.75;4.45;;;;;;;;;;5093051;28;20031;-65
2023/06/07 05:23:41;;;;;;;9.93;3.80;;;;;;;;;;5092959;28;20028;-64
2023/06/07 05:26:07;;;;;;;9.05;3.65;;;;;;;;;;5093026;28;20092;-64
2023/06/07 05:28:32;;;;;;;9.63;3.60;;;;;;;;;;5092916;28;20027;-64
2023/06/07 05:30:58;;;;;;;4.82;2.92;;;;;;;;;;5093149;28;20024;-64
2023/06/07 05:33:25;;;;;;;7.53;2.92;;;;;;;;;;5093060;28;20027;-65
2023/06/07 05:35:50;;;;;;;6.45;2.80;;;;;;;;;;5092824;28;20020;-67
2023/06/07 05:38:16;;;;;;;6.05;2.50;;;;;;;;;;5094074;28;20484;-64
2023/06/07 05:40:41;;;;;;;5.03;2.83;;;;;;;;;;5113250;28;20119;-64
2023/06/07 05:43:07;;;;;;;4.40;2.28;;;;;;;;;;5113133;28;20082;-64
2023/06/07 05:45:32;;;;;;;9.40;2.70;;;;;;;;;;5112945;28;20032;-64
2023/06/07 05:47:58;;;;;;;5.20;2.13;;;;;;;;;;5112916;28;20039;-64
2023/06/07 05:50:23;;;;;;;8.10;2.75;;;;;;;;;;5113111;28;20034;-64
2023/06/07 05:52:56;;;;;;;10.52;2.78;;;;;;;;;;5113164;28;20015;-64
2023/06/07 05:55:23;;;;;;;8.40;2.38;;;;;;;;;;5114900;28;20581;-64
2023/06/07 05:57:49;;;;;;;6.22;2.50;;;;;;;;;;5116925;28;20035;-64
2023/06/07 06:00:16;;;;;;;7.05;2.53;;;;;;;;;;5117333;28;20028;-64
2023/06/07 06:02:45;;;;;;;13.70;2.90;;;;;;;;;;5114113;28;20046;-64
2023/06/07 06:05:11;;;;;;;6.25;2.40;;;;;;;;;;5096788;28;20427;-64
2023/06/07 06:07:37;;;;;;;7.47;2.53;;;;;;;;;;5096746;28;20081;-64
2023/06/07 06:10:04;;;;;;;10.27;2.50;;;;;;;;;;5096683;28;20081;-63
2023/06/07 06:12:30;;;;;;;5.72;2.40;;;;;;;;;;5096189;28;20035;-63
2023/06/07 06:14:55;;;;;;;5.43;2.30;;;;;;;;;;5096487;28;20027;-63
2023/06/07 06:17:21;;;;;;;4.97;2.30;;;;;;;;;;5096343;28;20030;-63
2023/06/07 06:19:47;;;;;;;3.78;1.98;;;;;;;;;;5097292;28;20493;-63
2023/06/07 06:22:12;;;;;;;5.20;2.10;;;;;;;;;;5096048;28;20035;-63
2023/06/07 06:24:38;;;;;;;7.40;2.55;;;;;;;;;;5087582;28;20039;-63
2023/06/07 06:27:06;;;;;;;9.73;3.05;;;;;;;;;;5093304;28;20062;-63
2023/06/07 06:29:31;;;;;;;7.95;2.40;;;;;;;;;;5083102;28;20054;-63
2023/06/07 06:31:57;;;;;;;8.88;2.38;;;;;;;;;;5095353;28;20075;-63
2023/06/07 06:34:23;;;;;;;3.95;2.00;;;;;;;;;;5106724;28;20023;-63
2023/06/07 06:36:49;;;;;;;7.85;2.00;;;;;;;;;;5095752;28;20031;-64
2023/06/07 06:39:15;;;;;;;8.85;2.25;;;;;;;;;;5100465;28;20020;-63
2023/06/07 06:41:40;;;;;;;4.57;2.15;;;;;;;;;;5095872;28;20120;-63
2023/06/07 06:44:05;;;;;;;6.10;2.13;;;;;;;;;;5106749;28;20162;-64
2023/06/07 06:46:31;;;;;;;4.75;2.20;;;;;;;;;;5101039;28;20082;-64
2023/06/07 06:48:56;;;;;;;12.23;2.38;;;;;;;;;;5111730;28;20245;-64
2023/06/07 06:51:22;;;;;;;7.07;2.03;;;;;;;;;;5100451;28;20016;-64
2023/06/07 06:53:47;;;;;;;8.93;1.98;;;;;;;;;;5107108;28;20427;-64
2023/06/07 06:56:13;;;;;;;12.20;2.40;;;;;;;;;;5094916;28;20494;-63
2023/06/07 06:58:38;;;;;;;9.30;2.85;;;;;;;;;;5095011;28;20027;-64
2023/06/07 07:01:05;;;;;;;22.02;4.13;;;;;;;;;;5098817;28;20376;-63
2023/06/07 07:03:30;;;;;;;17.50;4.88;;;;;;;;;;5095192;28;20027;-64
2023/06/07 07:05:56;;;;;;;12.65;3.65;;;;;;;;;;5093564;28;20465;-64
2023/06/07 07:08:21;;;;;;;30.42;7.63;;;;;;;;;;5094753;28;20047;-64
2023/06/07 07:10:47;;;;;;;19.35;4.95;;;;;;;;;;5094845;28;20028;-64
2023/06/07 07:13:14;;;;;;;4.75;2.53;;;;;;;;;;5094998;28;20016;-64
2023/06/07 07:15:40;;;;;;;4.93;2.10;;;;;;;;;;5090068;28;20468;-64
2023/06/07 07:18:07;;;;;;;13.25;2.83;;;;;;;;;;5089298;28;20020;-64
2023/06/07 07:20:33;;;;;;;8.00;2.30;;;;;;;;;;5094785;28;20051;-64
2023/06/07 07:23:01;;;;;;;16.67;4.78;;;;;;;;;;5112046;28;20481;-64
2023/06/07 07:25:27;;;;;;;5.63;2.40;;;;;;;;;;5099964;28;20024;-64
2023/06/07 07:27:53;;;;;;;5.82;2.50;;;;;;;;;;5094792;28;20115;-64
2023/06/07 07:30:18;;;;;;;4.90;2.45;;;;;;;;;;5094517;28;20366;-64
2023/06/07 07:32:44;;;;;;;8.65;3.17;;;;;;;;;;5088653;28;20434;-64
2023/06/07 07:35:09;;;;;;;10.20;3.33;;;;;;;;;;5076604;28;20067;-64
2023/06/07 07:37:35;;;;;;;4.97;2.55;;;;;;;;;;5094644;28;20020;-64
2023/06/07 07:40:01;;;;;;;3.58;2.33;;;;;;;;;;5107082;28;20199;-64
2023/06/07 07:42:27;;;;;;;5.97;2.58;;;;;;;;;;5114870;27;20027;-64
2023/06/07 07:44:52;;;;;;;7.20;3.10;;;;;;;;;;5114846;28;20069;-64
2023/06/07 07:47:18;;;;;;;4.45;2.47;;;;;;;;;;5114517;28;20067;-65
2023/06/07 07:49:43;;;;;;;7.93;2.95;;;;;;;;;;5099314;28;20493;-64
2023/06/07 07:52:08;;;;;;;2.97;2.25;;;;;;;;;;5094402;28;20102;-64
2023/06/07 07:54:35;;;;;;;7.20;2.80;;;;;;;;;;5094001;28;20111;-64
2023/06/07 07:57:01;;;;;;;4.20;2.58;;;;;;;;;;5094215;28;20055;-64
2023/06/07 07:59:26;;;;;;;5.32;2.60;;;;;;;;;;5094633;28;20028;-64
2023/06/07 08:01:52;;;;;;;5.25;2.50;;;;;;;;;;5094222;28;20031;-64
2023/06/07 08:04:18;;;;;;;5.40;3.05;;;;;;;;;;5094120;28;20165;-64
2023/06/07 08:06:45;;;;;;;8.95;3.20;;;;;;;;;;5079310;28;20097;-64
2023/06/07 08:09:10;;;;;;;9.40;3.13;;;;;;;;;;5073474;28;20039;-64
2023/06/07 08:11:37;;;;;;;4.65;2.60;;;;;;;;;;5084353;28;20023;-64
2023/06/07 08:14:02;;;;;;;5.38;2.50;;;;;;;;;;5114502;28;20182;-64
2023/06/07 08:16:29;;;;;;;6.80;2.63;;;;;;;;;;5104385;28;20614;-65
2023/06/07 08:18:56;;;;;;;4.88;2.88;;;;;;;;;;5093701;28;20354;-65
2023/06/07 08:21:22;;;;;;;7.35;3.00;;;;;;;;;;5093819;28;20055;-65
2023/06/07 08:23:48;;;;;;;8.30;3.05;;;;;;;;;;5093662;28;20032;-65
2023/06/07 08:26:15;;;;;;;5.50;2.55;;;;;;;;;;5093723;28;20016;-65
2023/06/07 08:28:41;;;;;;;5.63;2.97;;;;;;;;;;5093679;28;20070;-64
2023/06/07 08:31:06;;;;;;;4.68;3.13;;;;;;;;;;5093505;28;20377;-65
2023/06/07 08:33:31;;;;;;;13.15;4.45;;;;;;;;;;5093629;28;20028;-65
2023/06/07 08:35:57;;;;;;;8.32;3.17;;;;;;;;;;5093469;28;20035;-64
2023/06/07 08:38:22;;;;;;;5.40;3.30;;;;;;;;;;5097125;28;20020;-64
2023/06/07 08:40:48;;;;;;;6.60;2.92;;;;;;;;;;5099255;28;20027;-64
2023/06/07 08:43:13;;;;;;;6.90;2.90;;;;;;;;;;5093682;28;20032;-64
2023/06/07 08:45:39;;;;;;;6.63;2.88;;;;;;;;;;5093461;28;20031;-64
2023/06/07 08:48:06;;;;;;;7.05;3.10;;;;;;;;;;5093226;28;20055;-64
2023/06/07 08:50:32;;;;;;;9.02;3.55;;;;;;;;;;5093368;28;20020;-64
2023/06/07 08:53:12;;;;;;;6.38;2.80;;;;;;;;;;5093016;28;20039;-64
2023/06/07 08:55:38;;;;;;;7.75;3.25;;;;;;;;;;5093331;28;20028;-64
2023/06/07 08:58:06;;;;;;;5.72;2.90;;;;;;;;;;5093326;28;20034;-64
2023/06/07 09:00:32;;;;;;;6.95;3.22;;;;;;;;;;5093096;28;20035;-64
2023/06/07 09:02:58;;;;;;;5.70;2.58;;;;;;;;;;5092850;28;20028;-64
2023/06/07 09:05:24;;;;;;;4.40;2.97;;;;;;;;;;5093228;28;20382;-64
2023/06/07 09:07:50;;;;;;;6.15;3.20;;;;;;;;;;5092716;28;20384;-64
2023/06/07 09:10:17;;;;;;;9.95;3.40;;;;;;;;;;5092925;28;20034;-64
2023/06/07 09:12:47;;;;;;;7.80;2.97;;;;;;;;;;5092786;28;20051;-65
2023/06/07 09:15:20;;;;;;;9.40;3.10;;;;;;;;;;5092747;28;20054;-65
2023/06/07 09:17:58;;;;;;;6.78;3.35;;;;;;;;;;5092745;28;20122;-65
2023/06/07 09:20:28;;;;;;;10.63;3.10;;;;;;;;;;5097114;28;20107;-64
2023/06/07 09:23:08;;;;;;;8.65;3.35;;;;;;;;;;5113232;28;20088;-64
2023/06/07 09:25:34;;;;;;;9.35;2.85;;;;;;;;;;5113278;28;20028;-65
2023/06/07 09:28:02;;;;;;;4.80;3.00;;;;;;;;;;5113021;28;20031;-65
2023/06/07 09:30:28;;;;;;;12.18;2.90;;;;;;;;;;5112436;28;20035;-65
2023/06/07 09:32:53;;;;;;;10.27;3.40;;;;;;;;;;5112579;28;20028;-65
2023/06/07 09:35:19;;;;;;;7.93;2.90;;;;;;;;;;5112396;28;20032;-65
2023/06/07 09:37:50;;;;;;;6.50;2.88;;;;;;;;;;5100870;28;20035;-65
2023/06/07 09:40:16;;;;;;;5.28;2.90;;;;;;;;;;5100768;28;20473;-65
2023/06/07 09:42:43;;;;;;;6.90;2.67;;;;;;;;;;5095994;28;20039;-65
2023/06/07 09:45:12;;;;;;;10.55;3.22;;;;;;;;;;5092245;28;20095;-65
2023/06/07 09:47:40;;;;;;;12.32;3.20;;;;;;;;;;5092216;28;20044;-65
2023/06/07 09:50:13;;;;;;;9.52;3.10;;;;;;;;;;5092187;28;20512;-65
2023/06/07 09:52:39;;;;;;;7.70;2.65;;;;;;;;;;5092242;28;20059;-65
2023/06/07 09:55:06;;;;;;;6.15;3.40;;;;;;;;;;5092362;28;20470;-65
2023/06/07 09:57:34;;;;;;;7.25;3.30;;;;;;;;;;5092265;28;20497;-65
2023/06/07 10:00:14;;;;;;;6.45;3.00;;;;;;;;;;5092294;28;20035;-64
2023/06/07 10:02:44;;;;;;;8.25;2.90;;;;;;;;;;5092176;28;20034;-64
2023/06/07 10:05:12;;;;;;;5.78;3.20;;;;;;;;;;5091987;28;20397;-64
2023/06/07 10:07:42;;;;;;;10.02;3.17;;;;;;;;;;5092362;28;20028;-65
2023/06/07 10:10:11;;;;;;;11.75;3.20;;;;;;;;;;5092227;28;20049;-64
2023/06/07 10:12:40;;;;;;;5.40;3.53;;;;;;;;;;5092219;28;20055;-64
2023/06/07 10:15:11;;;;;;;6.05;3.35;;;;;;;;;;5092196;28;20032;-64
2023/06/07 10:18:00;;;;;;;5.53;3.15;;;;;;;;;;5091929;28;20032;-64
2023/06/07 10:20:40;;;;;;;12.20;3.85;;;;;;;;;;5092073;28;20072;-64
2023/06/07 10:23:09;;;;;;;6.00;3.13;;;;;;;;;;5092128;28;20039;-64
2023/06/07 10:25:41;;;;;;;11.13;3.03;;;;;;;;;;5092373;28;20107;-64
2023/06/07 10:28:21;;;;;;;10.35;3.45;;;;;;;;;;5092290;28;20064;-64
2023/06/07 10:31:04;;;;;;;5.75;3.83;;;;;;;;;;5092288;28;20020;-64
2023/06/07 10:33:30;;;;;;;12.95;4.35;;;;;;;;;;5091881;28;20074;-64
2023/06/07 10:35:56;;;;;;;9.50;3.90;;;;;;;;;;5091876;28;20024;-64
2023/06/07 10:38:22;;;;;;;8.77;3.25;;;;;;;;;;5094275;28;20354;-64
2023/06/07 10:40:47;;;;;;;9.27;3.47;;;;;;;;;;5097803;28;20058;-64
2023/06/07 10:43:13;;;;;;;9.63;3.45;;;;;;;;;;5094885;28;20085;-64
2023/06/07 10:45:38;;;;;;;6.28;3.35;;;;;;;;;;5095834;28;20028;-64
2023/06/07 10:48:33;;;;;;;7.43;3.53;;;;;;;;;;5095292;28;20048;-64
2023/06/07 10:50:58;;;;;;;10.20;3.60;;;;;;;;;;5095432;28;20032;-64
2023/06/07 10:53:24;;;;;;;5.18;3.10;;;;;;;;;;5095735;28;20432;-64
2023/06/07 10:55:50;;;;;;;5.80;3.47;;;;;;;;;;5095597;28;20492;-64
2023/06/07 10:58:25;;;;;;;6.32;3.28;;;;;;;;;;5095713;28;20031;-64
2023/06/07 11:00:51;;;;;;;6.95;2.88;;;;;;;;;;5095350;28;20039;-64
2023/06/07 11:03:22;;;;;;;5.68;2.90;;;;;;;;;;5095119;28;20028;-64
2023/06/07 11:06:01;;;;;;;7.35;3.35;;;;;;;;;;5095278;28;20364;-64
2023/06/07 11:08:32;;;;;;;7.20;3.78;;;;;;;;;;5095269;28;20035;-64
2023/06/07 11:11:01;;;;;;;7.65;3.45;;;;;;;;;;5096169;28;20051;-65
2023/06/07 11:13:53;;;;;;;5.22;3.22;;;;;;;;;;5115871;28;20042;-64
2023/06/07 11:16:24;;;;;;;9.75;3.35;;;;;;;;;;5106784;28;20484;-64
2023/06/07 11:18:56;;;;;;;6.63;3.95;;;;;;;;;;5095186;28;20538;-64
2023/06/07 11:21:26;;;;;;;13.95;3.70;;;;;;;;;;5095116;28;20059;-64
2023/06/07 11:24:11;;;;;;;5.70;3.75;;;;;;;;;;5095178;28;20540;-64
2023/06/07 11:26:37;;;;;;;10.07;3.83;;;;;;;;;;5093582;28;20745;-64
2023/06/07 11:29:08;;;;;;;6.43;3.78;;;;;;;;;;5094656;28;20020;-64
2023/06/07 11:31:34;;;;;;;5.97;3.15;;;;;;;;;;5099026;28;20062;-64
2023/06/07 11:33:59;;;;;;;4.43;2.72;;;;;;;;;;5115276;28;20430;-64
2023/06/07 11:36:25;;;;;;;5.05;3.40;;;;;;;;;;5114372;27;20114;-64
2023/06/07 11:38:56;;;;;;;4.45;3.08;;;;;;;;;;5097692;28;20020;-64
2023/06/07 11:41:23;;;;;;;8.82;3.35;;;;;;;;;;5094379;28;20431;-65
2023/06/07 11:43:49;;;;;;;9.90;3.67;;;;;;;;;;5094614;28;20107;-64
2023/06/07 11:46:16;;;;;;;7.68;3.20;;;;;;;;;;5094371;28;20103;-64
2023/06/07 11:48:41;;;;;;;5.90;3.25;;;;;;;;;;5094539;28;20047;-64
2023/06/07 11:51:06;;;;;;;4.90;3.13;;;;;;;;;;5094487;28;20032;-64
2023/06/07 11:53:32;;;;;;;9.68;3.42;;;;;;;;;;5094121;28;20024;-64
2023/06/07 11:56:02;;;;;;;8.27;3.53;;;;;;;;;;5094192;28;20040;-64
2023/06/07 11:58:27;;;;;;;;;;;;;;;;;;5094763;28;20027;-64
2023/06/07 12:00:54;;;;;;;9.73;3.00;;;;;;;;;;5093988;28;19912;-64
2023/06/07 12:03:21;;;;;;;5.72;3.20;;;;;;;;;;5094079;28;20016;-64
2023/06/07 12:05:47;;;;;;;7.45;3.17;;;;;;;;;;5094112;28;20024;-64
2023/06/07 12:08:15;;;;;;;8.93;3.20;;;;;;;;;;5094411;28;20016;-64
2023/06/07 12:10:41;;;;;;;6.10;3.05;;;;;;;;;;5094111;28;20031;-64
2023/06/07 12:13:13;;;;;;;5.28;3.13;;;;;;;;;;5094014;28;20024;-64
2023/06/07 12:15:46;;;;;;;5.07;2.85;;;;;;;;;;5093620;28;20020;-64
2023/06/07 12:18:18;;;;;;;3.90;3.05;;;;;;;;;;5093936;28;20031;-64
2023/06/07 12:20:48;;;;;;;9.02;3.15;;;;;;;;;;5093903;28;20024;-64
2023/06/07 12:23:15;;;;;;;6.25;3.05;;;;;;;;;;5093870;28;20024;-64
2023/06/07 12:25:41;;;;;;;7.35;3.00;;;;;;;;;;5093834;28;20024;-64
2023/06/07 12:28:12;;;;;;;7.85;3.30;;;;;;;;;;5093932;28;20381;-63
2023/06/07 12:30:38;;;;;;;5.60;3.20;;;;;;;;;;5093495;28;20488;-65
2023/06/07 12:33:06;;;;;;;6.22;3.10;;;;;;;;;;5093629;28;20434;-65
2023/06/07 12:35:38;;;;;;;9.52;3.40;;;;;;;;;;5092368;28;20063;-65
2023/06/07 12:38:07;;;;;;;6.90;3.30;;;;;;;;;;5093628;28;20388;-64
2023/06/07 12:40:33;;;;;;;7.78;3.13;;;;;;;;;;5079930;28;20043;-64
2023/06/07 12:42:58;;;;;;;5.40;2.90;;;;;;;;;;5073058;28;20488;-64
2023/06/07 12:45:24;;;;;;;5.57;2.90;;;;;;;;;;5072784;28;20028;-64
2023/06/07 12:47:50;;;;;;;11.18;3.20;;;;;;;;;;5072842;28;20041;-64
2023/06/07 12:50:15;;;;;;;5.63;2.97;;;;;;;;;;5072982;28;20371;-65
2023/06/07 12:52:42;;;;;;;5.57;2.85;;;;;;;;;;5072950;28;20063;-64
2023/06/07 12:55:08;;;;;;;5.88;3.03;;;;;;;;;;5072745;28;20056;-65
2023/06/07 12:57:33;;;;;;;6.60;3.00;;;;;;;;;;5074488;28;20451;-64
2023/06/07 12:59:59;;;;;;;6.28;2.70;;;;;;;;;;5092777;28;20032;-64
2023/06/07 13:02:25;;;;;;;6.25;3.08;;;;;;;;;;5092212;28;20024;-64
2023/06/07 13:04:50;;;;;;;6.05;3.00;;;;;;;;;;5072113;28;20017;-64
2023/06/07 13:07:15;;;;;;;6.68;3.22;;;;;;;;;;5072826;28;20074;-64
2023/06/07 13:09:41;;;;;;;4.68;3.00;;;;;;;;;;5072760;28;20035;-64
2023/06/07 13:12:09;;;;;;;11.45;2.95;;;;;;;;;;5071206;28;20041;-65
2023/06/07 13:14:35;;;;;;;6.93;3.05;;;;;;;;;;5072528;28;20033;-64
2023/06/07 13:17:00;;;;;;;5.50;3.03;;;;;;;;;;5086331;28;20051;-63
2023/06/07 13:19:26;;;;;;;6.80;2.78;;;;;;;;;;5092991;28;20474;-64
2023/06/07 13:21:51;;;;;;;5.55;2.80;;;;;;;;;;5092865;28;20028;-66
2023/06/07 13:24:17;;;;;;;6.28;3.05;;;;;;;;;;5092994;28;20047;-64
2023/06/07 13:26:43;;;;;;;6.82;2.60;;;;;;;;;;5092675;28;20071;-64
2023/06/07 13:29:08;;;;;;;4.85;2.83;;;;;;;;;;5092404;28;20500;-64
2023/06/07 13:31:33;;;;;;;5.57;2.67;;;;;;;;;;5092848;28;20023;-64
2023/06/07 13:33:59;;;;;;;5.82;3.00;;;;;;;;;;5092171;28;20016;-64
2023/06/07 13:36:24;;;;;;;6.45;2.85;;;;;;;;;;5092422;28;20088;-64
2023/06/07 13:38:50;;;;;;;9.98;2.80;;;;;;;;;;5098724;28;20107;-64
2023/06/07 13:41:15;;;;;;;4.63;2.53;;;;;;;;;;5094367;28;20023;-64
2023/06/07 13:43:41;;;;;;;9.15;3.00;;;;;;;;;;5092221;28;20504;-64
2023/06/07 13:46:06;;;;;;;9.02;2.67;;;;;;;;;;5092157;28;20031;-63
2023/06/07 13:48:32;;;;;;;4.40;2.63;;;;;;;;;;5092302;28;20043;-64
2023/06/07 13:50:58;;;;;;;4.25;2.58;;;;;;;;;;5092334;28;20047;-64
2023/06/07 13:53:24;;;;;;;7.07;2.90;;;;;;;;;;5092398;28;20027;-64
2023/06/07 13:55:50;;;;;;;7.53;2.53;;;;;;;;;;5092232;28;20028;-63
2023/06/07 13:58:16;;;;;;;7.45;2.83;;;;;;;;;;5092513;28;20346;-64
2023/06/07 14:00:42;;;;;;;7.97;2.60;;;;;;;;;;5090935;28;20020;-64
2023/06/07 14:03:08;;;;;;;7.55;2.53;;;;;;;;;;5092317;28;20028;-65
2023/06/07 14:05:34;;;;;;;5.93;2.78;;;;;;;;;;5092533;28;20031;-64
2023/06/07 14:08:03;;;;;;;7.03;2.83;;;;;;;;;;5092465;28;20113;-64
2023/06/07 14:10:30;;;;;;;11.15;2.85;;;;;;;;;;5092279;28;20046;-64
2023/06/07 14:12:56;;;;;;;4.20;2.50;;;;;;;;;;5090821;28;20469;-65
2023/06/07 14:15:22;;;;;;;6.22;2.88;;;;;;;;;;5091886;28;20048;-64
2023/06/07 14:17:47;;;;;;;7.22;2.53;;;;;;;;;;5096130;28;20103;-65
2023/06/07 14:20:13;;;;;;;5.03;2.60;;;;;;;;;;5096384;28;20031;-64
2023/06/07 14:22:39;;;;;;;5.88;2.55;;;;;;;;;;5075731;28;20495;-64
2023/06/07 14:25:05;;;;;;;6.68;2.72;;;;;;;;;;5093475;28;20059;-64
2023/06/07 14:27:30;;;;;;;4.90;2.70;;;;;;;;;;5096261;28;20073;-64
2023/06/07 14:29:56;;;;;;;6.78;2.42;;;;;;;;;;5096046;28;20036;-64
2023/06/07 14:32:21;;;;;;;5.20;2.45;;;;;;;;;;5096197;28;20085;-64
2023/06/07 14:34:47;;;;;;;4.07;2.78;;;;;;;;;;5096125;28;20081;-64
2023/06/07 14:37:12;;;;;;;4.32;2.63;;;;;;;;;;5095757;28;20074;-64
2023/06/07 14:39:37;;;;;;;5.32;2.80;;;;;;;;;;5104087;28;20418;-64